Tiempo atmosférico en la estación meteorológica de Cervantes, Lugo (1020 m.)



Fecha
DESCASC
Temp. máxima en grados centígrados (hora)
DESCASC
Temp. mínima en grados centígrados (hora)
DESCASC
Temp. media en grados centígrados
DESCASC
Racha de viento máxima en m/sg (hora)
DESCASC
Velocidad máxima media en intervalos de 10 minutos(hora)
DESCASC
Precipitaciones diarias en mm
DESCASC
Precipitaciones de 00:00 a 06:00 en mm
DESCASC
Precipitaciones de 06:00 a 12:00 en mm
DESCASC
Precipitaciones de 12:00 a 18:00 en mm
DESCASC
Precipitaciones de 18:00 a 24:00 en mm
DESCASC
24-09-2020 12.7 (12:30) 6.7 (23:59) 9.7 10.28 (19:20) 4.72 (18:10) 9.6 0.2 0.4 2.4 6.6
23-09-2020 17 (15:10) 11.1 (00:00) 14.1 8.89 (04:30) 3.61 (04:50) 6.6 5.4 1 0.2 0
22-09-2020 19.5 (17:50) 9.6 (00:00) 14.6 6.11 (13:10) 2.78 (13:00) 2.8 0 0 0 2.8
21-09-2020 18.2 (17:10) 11.5 (00:00) 14.9 5.28 (03:50) 2.5 (03:50) 3 3 0 0 0
20-09-2020 19 (16:10) 11.8 (00:00) 15.4 6.67 (21:10) 2.5 (17:20) 10.6 0 1.2 0.2 9.2
19-09-2020 17.5 (15:00) 10.9 (00:00) 14.2 9.17 (05:20) 4.17 (05:30) 0.8 0 0 0.6 0.2
18-09-2020 21.6 (17:10) 11.9 (00:00) 16.8 8.61 (14:10) 4.72 (20:00) 15 14 0 0 1
17-09-2020 23.2 (15:20) 13.9 (00:00) 18.6 13.89 (11:00) 7.78 (10:40) 8 2.4 0 0 5.6
16-09-2020 26.4 (17:10) 14.1 (00:00) 20.3 8.06 (10:10) 4.72 (10:20) 0 0 0 0 0
15-09-2020 24.2 (18:40) 13.9 (00:00) 19.1 8.61 (11:50) 3.89 (11:30) 0 0 0 0 0
14-09-2020 24.8 (16:20) 16 (00:00) 20.4 9.17 (14:20) 5.28 (14:20) 0.2 0 0 0 0.2
13-09-2020 30.3 (17:40) 19.3 (00:00) 24.8 10.83 (04:10) 5.28 (12:20) 0 0 0 0 0
12-09-2020 29.6 (18:00) 17.3 (00:00) 23.4 7.5 (13:30) 3.61 (13:40) 0 0 0 0 0
11-09-2020 27.9 (15:40) 15.4 (00:00) 21.6 7.5 (05:50) 3.61 (13:20) 0 0 0 0 0
10-09-2020 27.2 (17:30) 14 (00:00) 20.6 9.17 (06:30) 4.17 (06:30) 0 0 0 0 0
09-09-2020 26.8 (17:50) 14.6 (00:00) 20.7 8.61 (04:30) 4.17 (03:40) 0 0 0 0 0
08-09-2020 26.4 (18:40) 11.8 (00:00) 19.1 13.61 (11:20) 6.67 (11:00) 0 0 0 0 0
07-09-2020 22.6 (17:10) 7.1 (08:00) 14.9 4.44 (16:10) 1.94 (20:00) 0 0 0 0 0
06-09-2020 21 (15:00) 9.4 (00:00) 15.2 6.39 (17:20) 2.5 (16:40) 0 0 0 0 0
05-09-2020 22.1 (15:10) 12.3 (00:00) 17.2 6.39 (16:00) 2.5 (20:00) 0 0 0 0 0
04-09-2020 29.7 (17:40) 17.2 (00:00) 23.5 8.61 (14:50) 3.89 (08:50) 0 0 0 0 0
03-09-2020 28.8 (17:50) 14.9 (00:00) 21.8 5.56 (13:10) 3.06 (13:10) 0 0 0 0 0
02-09-2020 25.2 (18:00) 7.8 (00:00) 16.5 7.78 (11:20) 3.61 (12:30) 0 0 0 0 0
01-09-2020 22.2 (17:30) 10.5 (00:00) 16.4 6.11 (20:20) 2.78 (20:20) 0 0 0 0 0
31-08-2020 22.5 (19:10) 7.3 (00:00) 14.9 10.83 (05:50) 5.28 (12:10) 0 0 0 0 0
30-08-2020 16 (16:50) 7 (00:00) 11.5 6.39 (06:40) 2.5 (06:40) 1 0.4 0.6 0 0
29-08-2020 13 (19:10) 7.4 (00:00) 10.2 6.94 (16:30) 2.5 (16:30) 12.4 2.4 2.4 6.4 1.2
28-08-2020 17 (16:30) 8.9 (00:00) 12.9 7.5 (13:50) 3.33 (13:50) 1 1 0 0 0
27-08-2020 23.9 (15:00) 14.9 (00:00) 19.4 7.5 (22:20) 4.17 (22:20) 0.2 0 0 0 0.2
26-08-2020 26.9 (16:50) 12.9 (00:00) 19.9 5 (16:10) 2.5 (23:00) 0 0 0 0 0

Gráficas

Temp. máximas Temp. mínimas Temp. medias Precipitaciones Rachas de viento máximas Velocidades máximas media en intervalos de 10 minutos

Datos horarios

Fecha y hora oficial Temperatura (ºC) Velocidad del viento (km/h) Dirección del viento Racha (km/h) Dirección de racha Precipitación (mm) Presión (hPa) Tendencia (hPa) Humedad (%)
2020-09-24 23:00:00 7 5 Este 25 Norte 1 -- -- 90
2020-09-24 22:00:00 7.7 8 Nordeste 32 Norte 0 -- -- 88
2020-09-24 21:00:00 8 8 Este 30 Norte 2.6 -- -- 89
2020-09-24 20:00:00 8.2 10 Nordeste 37 Norte 2 -- -- 86
2020-09-24 19:00:00 9.2 10 Nordeste 33 Norte 0 -- -- 85
2020-09-24 18:00:00 9 16 Nordeste 36 Norte 0.4 -- -- 82
2020-09-24 17:00:00 9.3 9 Norte 31 Noroeste 1 -- -- 87
2020-09-24 16:00:00 9.2 10 Nordeste 34 Norte 0.8 -- -- 85
2020-09-24 15:00:00 9.8 11 Nordeste 28 Norte 0 -- -- 83
2020-09-24 14:00:00 10.9 9 Sudoeste 31 Sudoeste 0.2 -- -- 72
2020-09-24 13:00:00 12.7 11 Sudoeste 35 Sudoeste 0 -- -- 61
2020-09-24 12:00:00 11.6 10 Sudoeste 27 Nordeste 0 -- -- 61
2020-09-24 11:00:00 10.3 11 Norte 30 Norte 0 -- -- 70
2020-09-24 10:00:00 8.8 9 Norte 21 Norte 0 -- -- 84
2020-09-24 09:00:00 9 6 Nordeste 18 Norte 0 -- -- 86
2020-09-24 08:00:00 9.4 8 Norte 24 Norte 0 -- -- 86
2020-09-24 07:00:00 9.5 5 Este 19 Nordeste 0.4 -- -- 87
2020-09-24 06:00:00 9.6 6 Nordeste 17 Norte 0 -- -- 89
2020-09-24 05:00:00 9.8 2 Sudeste 11 Norte 0 -- -- 89
2020-09-24 04:00:00 9.8 0 Calma 8 Sudeste 0.2 -- -- 89
2020-09-24 03:00:00 10 4 Este 9 Sudoeste 0 -- -- 87
2020-09-24 02:00:00 10.4 3 Sur 10 Oeste 0 -- -- 83
2020-09-24 01:00:00 10.4 0 Calma 10 Nordeste 0 -- -- 82
2020-09-24 00:00:00 11.1 2 Este 9 Sur 0 -- -- 82
2020-09-23 23:00:00 11.6 4 Sudoeste 16 Norte 0 -- -- 80
2020-09-23 22:00:00 12 8 Norte 25 Norte 0 -- -- 81
2020-09-23 21:00:00 12.6 8 Norte 19 Norte 0 -- -- 80
2020-09-23 20:00:00 13.4 3 Este 20 Oeste 0 -- -- 73
2020-09-23 19:00:00 14.5 5 Este 22 Sudoeste 0 -- -- 70
2020-09-23 18:00:00 14.3 3 Sudeste 19 Noroeste 0 -- -- 75
2020-09-23 17:00:00 15.1 7 Noroeste 19 Noroeste 0 -- -- 69
2020-09-23 16:00:00 14.6 10 Norte 26 Nordeste 0.2 -- -- 79
2020-09-23 15:00:00 16.7 5 Este 21 Sudoeste 0 -- -- 69
2020-09-23 14:00:00 15.3 4 Sur 13 Nordeste 0 -- -- 72
2020-09-23 13:00:00 14.1 3 Este 9 Norte 0 -- -- 81
2020-09-23 12:00:00 13.1 4 Norte 9 Norte 0 -- -- 84
2020-09-23 11:00:00 13 2 Sur 24 Norte 0 -- -- 85
2020-09-23 10:00:00 11.8 8 Norte 23 Norte 0.2 -- -- 87
2020-09-23 09:00:00 12.3 6 Nordeste 16 Nordeste 0.4 -- -- 87
2020-09-23 08:00:00 12.5 4 Sudoeste 15 Sur 0.4 -- -- 86
2020-09-23 07:00:00 12.8 5 Sudoeste 17 Noroeste 0 -- -- 85
2020-09-23 06:00:00 12.7 8 Sudoeste 24 Sur 0.4 -- -- 87
2020-09-23 05:00:00 12.9 10 Sudoeste 32 Sur 1.6 -- -- 83
2020-09-23 04:00:00 12.4 12 Sur 26 Sur 1.6 -- -- 88
2020-09-23 03:00:00 12.7 7 Sur 15 Sur 0 -- -- 86
2020-09-23 02:00:00 12.6 7 Sur 24 Sur 0 -- -- 87
2020-09-23 01:00:00 12.7 8 Sur 27 Sur 1.8 -- -- 86
2020-09-23 00:00:00 12.6 8 Sudoeste 17 Sur 2.8 -- -- 86
2020-09-22 23:00:00 13.7 3 Sudeste 16 Oeste 0 -- -- 78
2020-09-22 22:00:00 13.5 5 Oeste 18 Sudoeste 0 -- -- 77
2020-09-22 21:00:00 13.6 9 Oeste 21 Sudoeste 0 -- -- 73
2020-09-22 20:00:00 15.1 3 Oeste 19 Oeste 0 -- -- 59
2020-09-22 19:00:00 16 8 Sudoeste 16 Sudoeste 0 -- -- 54
2020-09-22 18:00:00 19.2 5 Sur 14 Oeste 0 -- -- 46
2020-09-22 17:00:00 18.2 5 Sudoeste 19 Sudoeste 0 -- -- 46
2020-09-22 16:00:00 17.4 5 Noroeste 15 Sudoeste 0 -- -- 49
2020-09-22 15:00:00 18.5 6 Sur 15 Sur 0 -- -- 59
2020-09-22 14:00:00 15.5 5 Sur 22 Sur 0 -- -- 63
2020-09-22 13:00:00 17.7 10 Sur 18 Sur 0 -- -- 58
2020-09-22 12:00:00 14.2 5 Sur 12 Sur 0 -- -- 73
2020-09-22 11:00:00 13.1 4 Sur 6 Sur 0 -- -- 83
2020-09-22 10:00:00 11 2 Sur 8 Sudeste 0 -- -- 89
2020-09-22 09:00:00 9.7 0 Calma 3 Sudeste 0 -- -- 91
2020-09-22 08:00:00 9.9 0 Calma 2 Noroeste 0 -- -- 91
2020-09-22 07:00:00 10.1 0 Calma 4 Noroeste 0 -- -- 90
2020-09-22 06:00:00 9.9 0 Calma 5 Norte 0 -- -- 90
2020-09-22 05:00:00 11 0 Calma 5 Norte 0 -- -- 88
2020-09-22 04:00:00 11.3 4 Norte 9 Noroeste 0 -- -- 88
2020-09-22 03:00:00 11.4 4 Norte 6 Noroeste 0 -- -- 89
2020-09-22 02:00:00 11 2 Norte 8 Noroeste 0 -- -- 89
2020-09-22 01:00:00 11.4 3 Norte 12 Noroeste 0 -- -- 89
2020-09-22 00:00:00 12 5 Norte 11 Norte 0 -- -- 83
2020-09-21 23:00:00 12.5 7 Norte 12 Norte 0 -- -- 81
2020-09-21 22:00:00 12.9 8 Norte 10 Norte 0 -- -- 77
2020-09-21 21:00:00 13.3 6 Norte 9 Norte 0 -- -- 73
2020-09-21 20:00:00 14.5 5 Norte 16 Norte 0 -- -- 65
2020-09-21 19:00:00 16.8 4 Nordeste 13 Noroeste 0 -- -- 61
2020-09-21 18:00:00 16 6 Norte 19 Noroeste 0 -- -- 66
2020-09-21 17:00:00 18.1 8 Norte 18 Noroeste 0 -- -- 64
2020-09-21 16:00:00 17.4 5 Nordeste 12 Nordeste 0 -- -- 70
2020-09-21 15:00:00 16 5 Noroeste 12 Nordeste 0 -- -- 71
2020-09-21 14:00:00 15.4 3 Este 10 Oeste 0 -- -- 77
2020-09-21 13:00:00 15.9 3 Oeste 8 Norte 0 -- -- 68
2020-09-21 12:00:00 12.8 4 Noroeste 10 Noroeste 0 -- -- 84
2020-09-21 11:00:00 12.3 3 Nordeste 8 Norte 0 -- -- 89
2020-09-21 10:00:00 11.7 0 Calma 5 Sudeste 0 -- -- 90
2020-09-21 09:00:00 11.6 0 Calma 6 Noroeste 0 -- -- 90
2020-09-21 08:00:00 11.6 2 Norte 10 Oeste 0 -- -- 90
2020-09-21 07:00:00 11.5 4 Noroeste 8 Noroeste 0 -- -- 90
2020-09-21 06:00:00 11.7 0 Calma 3 Noroeste 0 -- -- 90
2020-09-21 05:00:00 11.7 0 Calma 15 Noroeste 0 -- -- 90
2020-09-21 04:00:00 11.7 7 Oeste 19 Noroeste 0 -- -- 89
2020-09-21 03:00:00 11.9 4 Oeste 9 Noroeste 0 -- -- 90
2020-09-21 02:00:00 12 0 Calma 6 Sudoeste 0.2 -- -- 90
2020-09-21 01:00:00 12.2 3 Noroeste 9 Oeste 2.8 -- -- 88
2020-09-21 00:00:00 12.3 2 Noroeste 7 Nordeste 1.8 -- -- 89
2020-09-20 23:00:00 12.4 3 Sudeste 11 Sudoeste 1.2 -- -- 89
2020-09-20 22:00:00 12.6 5 Sudoeste 24 Norte 2.2 -- -- 88
2020-09-20 21:00:00 12.9 6 Norte 19 Norte 1.6 -- -- 87
2020-09-20 20:00:00 13.9 4 Norte 15 Noroeste 2.4 -- -- 86
2020-09-20 19:00:00 14.5 4 Norte 13 Norte 0 -- -- 80
2020-09-20 18:00:00 16.4 8 Norte 18 Norte 0 -- -- 72
2020-09-20 17:00:00 18.9 7 Noroeste 14 Norte 0 -- -- 61
2020-09-20 16:00:00 18.6 5 Norte 13 Norte 0 -- -- 64
2020-09-20 15:00:00 17.8 5 Sudoeste 13 Nordeste 0 -- -- 66
2020-09-20 14:00:00 16.7 4 Nordeste 8 Norte 0 -- -- 74
2020-09-20 13:00:00 15.2 0 Calma 6 Sudeste 0.2 -- -- 81
2020-09-20 12:00:00 14.1 3 Sudoeste 12 Sudeste 0 -- -- 84
2020-09-20 11:00:00 13.5 3 Sur 7 Sur 0 -- -- 86
2020-09-20 10:00:00 13.4 0 Calma 9 Sudeste 0 -- -- 86
2020-09-20 09:00:00 12 3 Oeste 6 Oeste 0.8 -- -- 89
2020-09-20 08:00:00 12.2 0 Calma 7 Sudoeste 0.4 -- -- 86
2020-09-20 07:00:00 12.4 0 Calma 7 Sudoeste 0 -- -- 84
2020-09-20 06:00:00 11.9 2 Este 7 Norte 0 -- -- 86
2020-09-20 05:00:00 12.5 0 Calma 8 Oeste 0 -- -- 83
2020-09-20 04:00:00 12.6 2 Noroeste 6 Oeste 0 -- -- 82
2020-09-20 03:00:00 13 0 Calma 7 Noroeste 0 -- -- 80
2020-09-20 02:00:00 13.6 4 Norte 7 Norte 0 -- -- 76
2020-09-20 01:00:00 12.5 2 Norte 5 Norte 0 -- -- 79
2020-09-20 00:00:00 12.4 2 Norte 5 Noroeste 0 -- -- 81
2020-09-19 23:00:00 13 0 Calma 5 Noroeste 0 -- -- 81
2020-09-19 22:00:00 13.2 0 Calma 6 Norte 0 -- -- 81
2020-09-19 21:00:00 12.8 0 Calma 7 Norte 0 -- -- 83
2020-09-19 20:00:00 13.8 2 Norte 4 Norte 0 -- -- 84
2020-09-19 19:00:00 14.7 3 Sur 5 Sur 0.2 -- -- 83
2020-09-19 18:00:00 14.2 3 Norte 14 Norte 0.4 -- -- 80
2020-09-19 17:00:00 14.6 6 Norte 20 Norte 0.2 -- -- 79
2020-09-19 16:00:00 14.9 10 Norte 18 Nordeste 0 -- -- 77
2020-09-19 15:00:00 17.5 4 Sur 10 Sur 0 -- -- 64
2020-09-19 14:00:00 14.9 5 Oeste 16 Norte 0 -- -- 71
2020-09-19 13:00:00 15 3 Nordeste 9 Nordeste 0 -- -- 72
2020-09-19 12:00:00 16 2 Sudeste 8 Sudeste 0 -- -- 68
2020-09-19 11:00:00 14.2 0 Calma 3 Sudoeste 0 -- -- 73
2020-09-19 10:00:00 14 0 Calma 5 Sur 0 -- -- 71
2020-09-19 09:00:00 11.2 0 Calma 4 Norte 0 -- -- 81
2020-09-19 08:00:00 11.3 5 Oeste 13 Oeste 0 -- -- 79
2020-09-19 07:00:00 12.1 3 Noroeste 26 Sur 0 -- -- 74
2020-09-19 06:00:00 12.5 10 Sudoeste 33 Sur 0 -- -- 76
2020-09-19 05:00:00 12.4 11 Sur 24 Sur 0 -- -- 77
2020-09-19 04:00:00 12.3 9 Sur 26 Sur 0 -- -- 79
2020-09-19 03:00:00 12.5 7 Sur 27 Sur 0 -- -- 75
2020-09-19 02:00:00 13.1 12 Sur 26 Sur 0 -- -- 70
2020-09-19 01:00:00 12.9 5 Sur 16 Sur 0 -- -- 70
2020-09-19 00:00:00 12.8 4 Sudoeste 15 Sur 0 -- -- 75
2020-09-18 23:00:00 12.6 3 Sur 18 Sudoeste 0 -- -- 77
2020-09-18 22:00:00 13.7 7 Sudoeste 18 Oeste 0 -- -- 73
2020-09-18 21:00:00 13.1 2 Norte 24 Oeste 0.2 -- -- 76
2020-09-18 20:00:00 14.7 17 Sudoeste 30 Oeste 0.6 -- -- 68
2020-09-18 19:00:00 16.2 2 Norte 17 Sudoeste 0.2 -- -- 64
2020-09-18 18:00:00 18.3 9 Sur 20 Sur 0 -- -- 52
2020-09-18 17:00:00 21 9 Sur 18 Sur 0 -- -- 42
2020-09-18 16:00:00 18.7 9 Sur 20 Sur 0 -- -- 54
2020-09-18 15:00:00 18.2 10 Sur 31 Sur 0 -- -- 52
2020-09-18 14:00:00 19.8 11 Sur 31 Sudeste 0 -- -- 50
2020-09-18 13:00:00 18.7 15 Sur 28 Sur 0 -- -- 59
2020-09-18 12:00:00 18.1 14 Sur 22 Sur 0 -- -- 60
2020-09-18 11:00:00 17.5 6 Sudoeste 16 Sur 0 -- -- 60
2020-09-18 10:00:00 14.5 4 Sur 15 Sudoeste 0 -- -- 73
2020-09-18 09:00:00 13.1 9 Sudoeste 20 Sudoeste 0 -- -- 76
2020-09-18 08:00:00 12.9 9 Sudoeste 19 Oeste 0 -- -- 78
2020-09-18 07:00:00 12.3 5 Oeste 13 Oeste 0 -- -- 84
2020-09-18 06:00:00 12.9 2 Sur 21 Sur 0 -- -- 84
2020-09-18 05:00:00 13.6 7 Sudoeste 26 Sudoeste 0 -- -- 83
2020-09-18 04:00:00 13 8 Sudoeste 19 Sudoeste 0 -- -- 86
2020-09-18 03:00:00 11.9 0 Calma 5 Noroeste 0 -- -- 90
2020-09-18 02:00:00 12.1 2 Norte 22 Noroeste 14 -- -- 90
2020-09-18 01:00:00 13.6 3 Norte 10 Noroeste 0 -- -- 90
2020-09-18 00:00:00 13.9 2 Nordeste 19 Noroeste 0 -- -- 89
2020-09-17 23:00:00 14.1 14 Noroeste 26 Noroeste 0.2 -- -- 87
2020-09-17 22:00:00 14.7 3 Norte 30 Sudoeste 3.8 -- -- 87
2020-09-17 21:00:00 16.5 6 Sudoeste 33 Oeste 1.2 -- -- 78
2020-09-17 20:00:00 19.2 10 Sudoeste 21 Sur 0.4 -- -- 63
2020-09-17 19:00:00 19.6 7 Sur 22 Sur 0 -- -- 58
2020-09-17 18:00:00 21.7 10 Sur 24 Sudoeste 0 -- -- 50
2020-09-17 17:00:00 21.8 10 Sur 28 Sur 0 -- -- 50
2020-09-17 16:00:00 22.6 11 Sur 33 Sur 0 -- -- 47
2020-09-17 15:00:00 23 13 Sur 35 Sur 0 -- -- 47
2020-09-17 14:00:00 22.3 15 Sur 42 Sur 0 -- -- 47
2020-09-17 13:00:00 21.3 23 Sur 41 Sur 0 -- -- 52
2020-09-17 12:00:00 17.9 28 Sur 44 Sudoeste 0 -- -- 59
2020-09-17 11:00:00 17.2 28 Sur 50 Sur 0 -- -- 59
2020-09-17 10:00:00 17.3 26 Sur 42 Sudoeste 0 -- -- 56
2020-09-17 09:00:00 17.2 20 Sur 39 Sur 0 -- -- 55
2020-09-17 08:00:00 17.2 19 Sur 36 Sur 0 -- -- 55
2020-09-17 07:00:00 17.3 10 Sur 21 Sudoeste 0 -- -- 56
2020-09-17 06:00:00 17.8 12 Sur 27 Sur 0 -- -- 56
2020-09-17 05:00:00 16.8 8 Sur 17 Sur 0 -- -- 60
2020-09-17 04:00:00 15.8 2 Noroeste 9 Noroeste 0 -- -- 66
2020-09-17 03:00:00 14.5 6 Noroeste 28 Sudoeste 2.4 -- -- 79
2020-09-17 02:00:00 18.1 2 Oeste 5 Sur 0 -- -- 53
2020-09-17 01:00:00 17.5 0 Calma 4 Nordeste 0 -- -- 55
2020-09-17 00:00:00 17.9 0 Calma 4 Norte 0 -- -- 53
2020-09-16 23:00:00 18.3 3 Norte 5 Noroeste 0 -- -- 50
2020-09-16 22:00:00 18.3 0 Calma 5 Noroeste 0 -- -- 56
2020-09-16 21:00:00 18.7 0 Calma 6 Norte 0 -- -- 58
2020-09-16 20:00:00 20 4 Norte 10 Noroeste 0 -- -- 54
2020-09-16 19:00:00 22.2 5 Norte 11 Norte 0 -- -- 43
2020-09-16 18:00:00 24.8 3 Noroeste 12 Sur 0 -- -- 34
2020-09-16 17:00:00 25.9 6 Sur 20 Sur 0 -- -- 29
2020-09-16 16:00:00 24.7 9 Sur 25 Sur 0 -- -- 31
2020-09-16 15:00:00 24.9 10 Sur 21 Sur 0 -- -- 31
2020-09-16 14:00:00 22.7 10 Sur 25 Sur 0 -- -- 37
2020-09-16 13:00:00 22.9 13 Sur 23 Sur 0 -- -- 39
2020-09-16 12:00:00 19.6 10 Sur 26 Sur 0 -- -- 50
2020-09-16 11:00:00 19.6 10 Sur 29 Sur 0 -- -- 48
2020-09-16 10:00:00 17.6 12 Sur 27 Sur 0 -- -- 53
2020-09-16 09:00:00 15.6 5 Sudoeste 14 Sur 0 -- -- 56
2020-09-16 08:00:00 14.8 5 Sudoeste 13 Sur 0 -- -- 59
2020-09-16 07:00:00 15 6 Sudoeste 14 Sudoeste 0 -- -- 60
2020-09-16 06:00:00 14.3 0 Calma 10 Sudoeste 0 -- -- 65
2020-09-16 05:00:00 14.8 0 Calma 14 Sudoeste 0 -- -- 63
2020-09-16 04:00:00 15.4 3 Noroeste 8 Noroeste 0 -- -- 62
2020-09-16 03:00:00 14.6 4 Noroeste 6 Noroeste 0 -- -- 71
2020-09-16 02:00:00 14.8 3 Norte 6 Norte 0 -- -- 72
2020-09-16 01:00:00 14.6 0 Calma 6 Norte 0 -- -- 77
2020-09-16 00:00:00 14.9 0 Calma 6 Norte 0 -- -- 75
2020-09-15 23:00:00 15.8 3 Norte 11 Noroeste 0 -- -- 72
2020-09-15 22:00:00 16.2 2 Nordeste 12 Norte 0 -- -- 65
2020-09-15 21:00:00 17.5 6 Norte 9 Norte 0 -- -- 52
2020-09-15 20:00:00 19.2 3 Noroeste 11 Oeste 0 -- -- 47
2020-09-15 19:00:00 22.6 3 Oeste 12 Noroeste 0 -- -- 43
2020-09-15 18:00:00 22.6 8 Noroeste 17 Norte 0 -- -- 37
2020-09-15 17:00:00 23 3 Nordeste 12 Sur 0 -- -- 37
2020-09-15 16:00:00 22.2 4 Sur 16 Sur 0 -- -- 44
2020-09-15 15:00:00 21.1 4 Sudoeste 22 Sur 0 -- -- 48
2020-09-15 14:00:00 21.6 13 Sur 28 Sur 0 -- -- 45
2020-09-15 13:00:00 21.6 13 Sur 26 Sur 0 -- -- 49
2020-09-15 12:00:00 20.4 12 Sur 31 Sur 0 -- -- 56
2020-09-15 11:00:00 19.2 11 Sur 28 Sur 0 -- -- 64
2020-09-15 10:00:00 17.4 11 Sur 28 Sur 0 -- -- 69
2020-09-15 09:00:00 14.9 6 Sur 24 Sudoeste 0 -- -- 79
2020-09-15 08:00:00 14.3 8 Sudoeste 22 Sur 0 -- -- 82
2020-09-15 07:00:00 14.3 5 Sudoeste 13 Sur 0 -- -- 85
2020-09-15 06:00:00 14 3 Norte 5 Noroeste 0 -- -- 86
2020-09-15 05:00:00 14.8 0 Calma 5 Noroeste 0 -- -- 86
2020-09-15 04:00:00 14.6 2 Norte 6 Norte 0 -- -- 87
2020-09-15 03:00:00 14.7 0 Calma 5 Norte 0 -- -- 88
2020-09-15 02:00:00 14.8 0 Calma 4 Oeste 0 -- -- 87
2020-09-15 01:00:00 15.6 0 Calma 8 Norte 0 -- -- 86
2020-09-15 00:00:00 16 2 Norte 8 Norte 0 -- -- 83
2020-09-14 23:00:00 16.5 2 Norte 10 Nordeste 0 -- -- 79
2020-09-14 22:00:00 17.1 3 Sudeste 11 Sudoeste 0 -- -- 73
2020-09-14 21:00:00 17.8 2 Nordeste 21 Norte 0 -- -- 77
2020-09-14 20:00:00 18.8 0 Calma 12 Norte 0 -- -- 70
2020-09-14 19:00:00 19.5 0 Calma 20 Noroeste 0.2 -- -- 65
2020-09-14 18:00:00 20.6 9 Noroeste 20 Noroeste 0 -- -- 58
2020-09-14 17:00:00 24.5 6 Sur 22 Sur 0 -- -- 41
2020-09-14 16:00:00 23.4 10 Sur 21 Sur 0 -- -- 44
2020-09-14 15:00:00 23.8 12 Sur 33 Sur 0 -- -- 42
2020-09-14 14:00:00 24.1 12 Sur 27 Sur 0 -- -- 41
2020-09-14 13:00:00 21.3 12 Sur 28 Sur 0 -- -- 46
2020-09-14 12:00:00 19.9 13 Sur 25 Sur 0 -- -- 46
2020-09-14 11:00:00 19.2 8 Sudoeste 21 Sudoeste 0 -- -- 49
2020-09-14 10:00:00 20 12 Sudoeste 28 Oeste 0 -- -- 44
2020-09-14 09:00:00 19.6 6 Sudoeste 17 Sudoeste 0 -- -- 49
2020-09-14 08:00:00 20.2 8 Sudoeste 22 Sudoeste 0 -- -- 40
2020-09-14 07:00:00 21.3 12 Sudoeste 24 Sudoeste 0 -- -- 36
2020-09-14 06:00:00 22 13 Sur 25 Sur 0 -- -- 33
2020-09-14 05:00:00 21.4 8 Sudoeste 21 Sudoeste 0 -- -- 34
2020-09-14 04:00:00 22.2 10 Sudoeste 21 Sudoeste 0 -- -- 31
2020-09-14 03:00:00 23 11 Sudoeste 27 Sudoeste 0 -- -- 29
2020-09-14 02:00:00 23.7 14 Sudoeste 26 Oeste 0 -- -- 28
2020-09-14 01:00:00 22.5 12 Sudoeste 20 Sudoeste 0 -- -- 30
2020-09-14 00:00:00 22.1 2 Oeste 15 Oeste 0 -- -- 30
2020-09-13 23:00:00 22.4 3 Norte 9 Oeste 0 -- -- 32
2020-09-13 22:00:00 22.7 4 Noroeste 8 Noroeste 0 -- -- 33
2020-09-13 21:00:00 23.5 4 Noroeste 10 Oeste 0 -- -- 32
2020-09-13 20:00:00 23.9 6 Oeste 10 Oeste 0 -- -- 34
2020-09-13 19:00:00 25.6 4 Noroeste 15 Sudoeste 0 -- -- 32
2020-09-13 18:00:00 29.4 8 Sur 15 Sur 0 -- -- 23
2020-09-13 17:00:00 27 8 Sudoeste 27 Sur 0 -- -- 26
2020-09-13 16:00:00 29.5 14 Sur 27 Sur 0 -- -- 20
2020-09-13 15:00:00 27.3 9 Sudoeste 28 Sudoeste 0 -- -- 24
2020-09-13 14:00:00 28.7 13 Sur 29 Sur 0 -- -- 21
2020-09-13 13:00:00 26.9 13 Sur 32 Sur 0 -- -- 25
2020-09-13 12:00:00 26 16 Sur 36 Sur 0 -- -- 24
2020-09-13 11:00:00 24.6 15 Sur 36 Sur 0 -- -- 25
2020-09-13 10:00:00 23.1 16 Sur 34 Sur 0 -- -- 24
2020-09-13 09:00:00 20.6 14 Sudoeste 33 Sur 0 -- -- 25
2020-09-13 08:00:00 20.1 13 Sur 34 Sur 0 -- -- 25
2020-09-13 07:00:00 19.7 14 Sur 33 Sur 0 -- -- 27
2020-09-13 06:00:00 19.5 12 Sur 32 Sur 0 -- -- 29
2020-09-13 05:00:00 19.7 14 Sur 39 Sur 0 -- -- 32
2020-09-13 04:00:00 19.9 16 Sur 37 Sur 0 -- -- 33
2020-09-13 03:00:00 20.3 15 Sur 32 Sur 0 -- -- 32
2020-09-13 02:00:00 20.6 4 Sudoeste 19 Sur 0 -- -- 32
2020-09-13 01:00:00 20.6 6 Sudoeste 19 Sur 0 -- -- 34
2020-09-13 00:00:00 20.2 5 Sudoeste 15 Sur 0 -- -- 40
2020-09-12 23:00:00 19.9 3 Noroeste 6 Noroeste 0 -- -- 57
2020-09-12 22:00:00 20.1 3 Norte 12 Norte 0 -- -- 58
2020-09-12 21:00:00 21.1 8 Norte 13 Norte 0 -- -- 58
2020-09-12 20:00:00 22.5 7 Norte 16 Norte 0 -- -- 47
2020-09-12 19:00:00 26.7 6 Norte 10 Norte 0 -- -- 35
2020-09-12 18:00:00 29.6 3 Oeste 12 Sur 0 -- -- 19
2020-09-12 17:00:00 28.9 5 Sur 15 Sudoeste 0 -- -- 21
2020-09-12 16:00:00 29.2 6 Sudoeste 18 Sur 0 -- -- 20
2020-09-12 15:00:00 28.3 7 Sur 21 Sur 0 -- -- 21
2020-09-12 14:00:00 27.6 10 Sur 27 Sur 0 -- -- 26
2020-09-12 13:00:00 26.6 9 Sur 21 Sur 0 -- -- 29
2020-09-12 12:00:00 25.8 9 Sur 19 Sur 0 -- -- 31
2020-09-12 11:00:00 24 9 Sur 21 Sur 0 -- -- 33
2020-09-12 10:00:00 22.6 4 Sur 17 Sudeste 0 -- -- 37
2020-09-12 09:00:00 18.4 3 Sudeste 15 Sudeste 0 -- -- 47
2020-09-12 08:00:00 17.9 2 Sur 13 Sur 0 -- -- 50
2020-09-12 07:00:00 18.3 3 Sur 13 Sur 0 -- -- 49
2020-09-12 06:00:00 17.9 3 Oeste 11 Oeste 0 -- -- 51
2020-09-12 05:00:00 18.3 3 Sur 23 Sur 0 -- -- 48
2020-09-12 04:00:00 18.8 11 Sur 19 Sur 0 -- -- 45
2020-09-12 03:00:00 18.2 4 Sudoeste 11 Sudoeste 0 -- -- 50
2020-09-12 02:00:00 18 0 Calma 4 Noroeste 0 -- -- 46
2020-09-12 01:00:00 17.3 0 Calma 8 Norte 0 -- -- 61
2020-09-12 00:00:00 17.8 0 Calma 4 Norte 0 -- -- 66
2020-09-11 23:00:00 18.9 0 Calma 7 Norte 0 -- -- 52
2020-09-11 22:00:00 19.6 4 Norte 11 Norte 0 -- -- 52
2020-09-11 21:00:00 20.1 8 Norte 13 Norte 0 -- -- 54
2020-09-11 20:00:00 21.3 6 Norte 12 Norte 0 -- -- 51
2020-09-11 19:00:00 25.6 5 Norte 12 Norte 0 -- -- 35
2020-09-11 18:00:00 26.8 4 Norte 9 Norte 0 -- -- 30
2020-09-11 17:00:00 23.5 4 Norte 13 Norte 0 -- -- 34
2020-09-11 16:00:00 24.9 3 Nordeste 15 Sur 0 -- -- 31
2020-09-11 15:00:00 27.5 6 Sur 20 Sur 0 -- -- 25
2020-09-11 14:00:00 26.3 12 Sur 24 Sur 0 -- -- 31
2020-09-11 13:00:00 25 12 Sur 27 Sudeste 0 -- -- 35
2020-09-11 12:00:00 23.6 12 Sur 26 Sur 0 -- -- 36
2020-09-11 11:00:00 22.3 7 Sudoeste 13 Sur 0 -- -- 40
2020-09-11 10:00:00 20.3 4 Sudeste 17 Sudeste 0 -- -- 42
2020-09-11 09:00:00 17.6 4 Sudeste 19 Sur 0 -- -- 49
2020-09-11 08:00:00 17.4 5 Sur 26 Sur 0 -- -- 51
2020-09-11 07:00:00 17.3 8 Sur 25 Sur 0 -- -- 52
2020-09-11 06:00:00 17.1 9 Sur 27 Sudeste 0 -- -- 54
2020-09-11 05:00:00 17.1 5 Sudoeste 24 Sudoeste 0 -- -- 54
2020-09-11 04:00:00 18.1 6 Sudoeste 21 Sur 0 -- -- 49
2020-09-11 03:00:00 16.4 0 Calma 4 Noroeste 0 -- -- 58
2020-09-11 02:00:00 15.7 0 Calma 4 Noroeste 0 -- -- 72
2020-09-11 01:00:00 15.4 0 Calma 4 Norte 0 -- -- 75
2020-09-11 00:00:00 15.9 0 Calma 3 Norte 0 -- -- 73
2020-09-10 23:00:00 16.8 0 Calma 3 Nordeste 0 -- -- 69
2020-09-10 22:00:00 17.7 0 Calma 12 Norte 0 -- -- 63
2020-09-10 21:00:00 18.6 8 Norte 13 Noroeste 0 -- -- 61
2020-09-10 20:00:00 20.3 7 Norte 16 Norte 0 -- -- 52
2020-09-10 19:00:00 24.2 8 Norte 15 Norte 0 -- -- 38
2020-09-10 18:00:00 26.6 5 Nordeste 14 Nordeste 0 -- -- 27
2020-09-10 17:00:00 26.6 5 Norte 13 Norte 0 -- -- 28
2020-09-10 16:00:00 25.5 5 Nordeste 14 Sudeste 0 -- -- 32
2020-09-10 15:00:00 25 6 Nordeste 15 Sur 0 -- -- 37
2020-09-10 14:00:00 25.8 5 Sudoeste 18 Sur 0 -- -- 28
2020-09-10 13:00:00 24.9 10 Sur 26 Sur 0 -- -- 32
2020-09-10 12:00:00 23.6 10 Sur 22 Sur 0 -- -- 35
2020-09-10 11:00:00 22.4 10 Sur 23 Sur 0 -- -- 39
2020-09-10 10:00:00 20.7 3 Sudeste 12 Sur 0 -- -- 42
2020-09-10 09:00:00 16.9 3 Sudeste 21 Sur 0 -- -- 48
2020-09-10 08:00:00 16.4 9 Sur 23 Sur 0 -- -- 50
2020-09-10 07:00:00 16.8 9 Sudoeste 33 Sur 0 -- -- 46
2020-09-10 06:00:00 17 13 Sur 31 Sur 0 -- -- 47
2020-09-10 05:00:00 16.7 3 Sur 25 Sudoeste 0 -- -- 49
2020-09-10 04:00:00 15.6 8 Sur 17 Sur 0 -- -- 58
2020-09-10 03:00:00 14.4 2 Norte 5 Noroeste 0 -- -- 78
2020-09-10 02:00:00 14.1 0 Calma 3 Noroeste 0 -- -- 87
2020-09-10 01:00:00 14.1 0 Calma 4 Noroeste 0 -- -- 86
2020-09-10 00:00:00 14.6 2 Sudeste 4 Norte 0 -- -- 83
2020-09-09 23:00:00 15.5 0 Calma 12 Norte 0 -- -- 75
2020-09-09 22:00:00 17 5 Norte 11 Norte 0 -- -- 68
2020-09-09 21:00:00 18.1 7 Norte 14 Norte 0 -- -- 64
2020-09-09 20:00:00 19.9 8 Norte 18 Norte 0 -- -- 56
2020-09-09 19:00:00 25.5 4 Norte 10 Norte 0 -- -- 28
2020-09-09 18:00:00 26.7 5 Nordeste 12 Norte 0 -- -- 26
2020-09-09 17:00:00 26.3 4 Nordeste 12 Nordeste 0 -- -- 29
2020-09-09 16:00:00 25.6 4 Este 15 Norte 0 -- -- 27
2020-09-09 15:00:00 24.4 6 Nordeste 15 Nordeste 0 -- -- 29
2020-09-09 14:00:00 24.8 5 Nordeste 13 Nordeste 0 -- -- 33
2020-09-09 13:00:00 25 8 Sur 15 Sur 0 -- -- 25
2020-09-09 12:00:00 24.1 4 Sur 12 Sur 0 -- -- 28
2020-09-09 11:00:00 22.4 4 Sur 10 Sur 0 -- -- 33
2020-09-09 10:00:00 20.6 3 Sudeste 14 Sudeste 0 -- -- 33
2020-09-09 09:00:00 16.6 3 Este 10 Sur 0 -- -- 38
2020-09-09 08:00:00 16.8 4 Sudeste 16 Sudoeste 0 -- -- 34
2020-09-09 07:00:00 15.7 4 Sudoeste 17 Sudoeste 0 -- -- 38
2020-09-09 06:00:00 16.1 8 Sudoeste 29 Sur 0 -- -- 37
2020-09-09 05:00:00 16.5 12 Sudoeste 31 Sur 0 -- -- 37
2020-09-09 04:00:00 16.7 9 Sur 29 Sur 0 -- -- 38
2020-09-09 03:00:00 16.7 9 Sur 23 Sur 0 -- -- 36
2020-09-09 02:00:00 17.6 6 Sur 22 Sur 0 -- -- 33
2020-09-09 01:00:00 17.5 8 Sur 20 Sur 0 -- -- 35
2020-09-09 00:00:00 18 11 Sur 23 Sur 0 -- -- 35
2020-09-08 23:00:00 16.7 3 Norte 8 Norte 0 -- -- 38
2020-09-08 22:00:00 18.1 4 Sudeste 15 Sur 0 -- -- 34
2020-09-08 21:00:00 18.4 4 Oeste 10 Sudoeste 0 -- -- 33
2020-09-08 20:00:00 19.4 2 Noroeste 13 Sudoeste 0 -- -- 29
2020-09-08 19:00:00 26.3 7 Sudoeste 18 Sur 0 -- -- 19
2020-09-08 18:00:00 25.5 9 Sudoeste 19 Sur 0 -- -- 21
2020-09-08 17:00:00 25.1 9 Sudoeste 22 Sur 0 -- -- 21
2020-09-08 16:00:00 24.5 10 Sur 26 Sur 0 -- -- 25
2020-09-08 15:00:00 22.3 14 Sur 35 Sur 0 -- -- 27
2020-09-08 14:00:00 21.3 17 Sur 33 Sur 0 -- -- 26
2020-09-08 13:00:00 20 14 Sudoeste 39 Sur 0 -- -- 34
2020-09-08 12:00:00 17.5 18 Sur 49 Sur 0 -- -- 39
2020-09-08 11:00:00 15.9 24 Sur 45 Sudeste 0 -- -- 38
2020-09-08 10:00:00 14.6 23 Sur 38 Sur 0 -- -- 44
2020-09-08 09:00:00 13.7 18 Sur 42 Sur 0 -- -- 43
2020-09-08 08:00:00 13.3 15 Sur 33 Sur 0 -- -- 45
2020-09-08 07:00:00 13.4 14 Sur 31 Sur 0 -- -- 39
2020-09-08 06:00:00 13.2 17 Sur 30 Sur 0 -- -- 55
2020-09-08 05:00:00 12.9 9 Sudoeste 34 Sur 0 -- -- 58
2020-09-08 04:00:00 13.2 12 Sur 32 Sur 0 -- -- 55
2020-09-08 03:00:00 13.7 10 Sur 35 Sur 0 -- -- 55
2020-09-08 02:00:00 14.1 14 Sur 35 Sur 0 -- -- 56
2020-09-08 01:00:00 13.6 4 Sudoeste 15 Sudoeste 0 -- -- 64
2020-09-08 00:00:00 11.8 3 Norte 4 Noroeste 0 -- -- 84
2020-09-07 23:00:00 12.7 0 Calma 4 Noroeste 0 -- -- 80
2020-09-07 22:00:00 13.8 0 Calma 6 Noroeste 0 -- -- 75
2020-09-07 21:00:00 15.1 2 Noroeste 14 Norte 0 -- -- 68
2020-09-07 20:00:00 16.6 7 Norte 13 Norte 0 -- -- 62
2020-09-07 19:00:00 20.8 5 Norte 12 Nordeste 0 -- -- 49
2020-09-07 18:00:00 21.8 6 Norte 16 Norte 0 -- -- 46
2020-09-07 17:00:00 22.4 5 Nordeste 16 Nordeste 0 -- -- 44
2020-09-07 16:00:00 21.3 7 Norte 15 Nordeste 0 -- -- 45
2020-09-07 15:00:00 20.8 5 Nordeste 14 Nordeste 0 -- -- 47
2020-09-07 14:00:00 20.5 5 Sudeste 12 Este 0 -- -- 45
2020-09-07 13:00:00 19.9 5 Sudeste 11 Sudeste 0 -- -- 49
2020-09-07 12:00:00 17 4 Sudeste 9 Sudoeste 0 -- -- 57
2020-09-07 11:00:00 15.6 4 Sur 9 Sur 0 -- -- 64
2020-09-07 10:00:00 11.5 3 Sudeste 7 Sudeste 0 -- -- 86
2020-09-07 09:00:00 8 0 Calma 4 Oeste 0 -- -- 92
2020-09-07 08:00:00 7.1 0 Calma 4 Este 0 -- -- 92
2020-09-07 07:00:00 7.2 0 Calma 4 Este 0 -- -- 92
2020-09-07 06:00:00 7.7 2 Nordeste 5 Nordeste 0 -- -- 92
2020-09-07 05:00:00 8.1 0 Calma 3 Oeste 0 -- -- 91
2020-09-07 04:00:00 8 0 Calma 4 Nordeste 0 -- -- 90
2020-09-07 03:00:00 8.7 0 Calma 4 Nordeste 0 -- -- 90
2020-09-07 02:00:00 8.7 0 Calma 4 Noroeste 0 -- -- 89
2020-09-07 01:00:00 8.9 0 Calma 5 Nordeste 0 -- -- 89
2020-09-07 00:00:00 9.4 3 Este 9 Noroeste 0 -- -- 87
2020-09-06 23:00:00 10.4 2 Noroeste 6 Noroeste 0 -- -- 84
2020-09-06 22:00:00 11.1 2 Noroeste 12 Norte 0 -- -- 81
2020-09-06 21:00:00 13.2 8 Norte 17 Norte 0 -- -- 74
2020-09-06 20:00:00 14.5 8 Norte 17 Norte 0 -- -- 70
2020-09-06 19:00:00 18.8 6 Norte 18 Norte 0 -- -- 57
2020-09-06 18:00:00 19.8 8 Norte 23 Norte 0 -- -- 57
2020-09-06 17:00:00 19.8 8 Norte 19 Nordeste 0 -- -- 57
2020-09-06 16:00:00 20.1 8 Norte 17 Nordeste 0 -- -- 60
2020-09-06 15:00:00 21 4 Este 12 Nordeste 0 -- -- 57
2020-09-06 14:00:00 19.1 5 Nordeste 19 Nordeste 0 -- -- 62
2020-09-06 13:00:00 16.4 5 Norte 16 Nordeste 0 -- -- 72
2020-09-06 12:00:00 12.8 5 Nordeste 10 Norte 0 -- -- 86
2020-09-06 11:00:00 11.8 2 Sur 6 Sur 0 -- -- 91
2020-09-06 10:00:00 11.5 2 Sur 6 Sur 0 -- -- 91
2020-09-06 09:00:00 10.9 2 Sur 7 Noroeste 0 -- -- 92
2020-09-06 08:00:00 10.4 4 Norte 7 Noroeste 0 -- -- 91
2020-09-06 07:00:00 10.8 3 Norte 6 Norte 0 -- -- 91
2020-09-06 06:00:00 11 3 Norte 7 Norte 0 -- -- 91
2020-09-06 05:00:00 11.4 2 Oeste 5 Oeste 0 -- -- 91
2020-09-06 04:00:00 11.5 3 Norte 5 Nordeste 0 -- -- 90
2020-09-06 03:00:00 11.3 0 Calma 5 Noroeste 0 -- -- 91
2020-09-06 02:00:00 12.1 2 Oeste 8 Norte 0 -- -- 90
2020-09-06 01:00:00 12.1 3 Norte 9 Nordeste 0 -- -- 90
2020-09-06 00:00:00 12.4 4 Norte 11 Norte 0 -- -- 89
2020-09-05 23:00:00 12.8 3 Nordeste 14 Noroeste 0 -- -- 88
2020-09-05 22:00:00 13.3 4 Norte 10 Noroeste 0 -- -- 86
2020-09-05 21:00:00 14.5 3 Sur 20 Norte 0 -- -- 81
2020-09-05 20:00:00 15.8 9 Norte 21 Norte 0 -- -- 77
2020-09-05 19:00:00 19.8 6 Norte 17 Noroeste 0 -- -- 64
2020-09-05 18:00:00 20.3 8 Norte 17 Noroeste 0 -- -- 64
2020-09-05 17:00:00 21.2 7 Norte 19 Norte 0 -- -- 62
2020-09-05 16:00:00 21.4 8 Norte 23 Nordeste 0 -- -- 63
2020-09-05 15:00:00 21.8 6 Nordeste 15 Nordeste 0 -- -- 62
2020-09-05 14:00:00 21.4 5 Nordeste 14 Nordeste 0 -- -- 62
2020-09-05 13:00:00 20.6 6 Nordeste 15 Nordeste 0 -- -- 65
2020-09-05 12:00:00 18.6 4 Sur 9 Sur 0 -- -- 71
2020-09-05 11:00:00 14 2 Este 6 Sudeste 0 -- -- 89
2020-09-05 10:00:00 13.6 0 Calma 5 Sur 0 -- -- 90
2020-09-05 09:00:00 12.8 2 Norte 7 Noroeste 0 -- -- 91
2020-09-05 08:00:00 12.7 0 Calma 5 Noroeste 0 -- -- 91
2020-09-05 07:00:00 13 0 Calma 4 Oeste 0 -- -- 90
2020-09-05 06:00:00 13.2 0 Calma 3 Norte 0 -- -- 90
2020-09-05 05:00:00 13.4 0 Calma 3 Sudoeste 0 -- -- 89
2020-09-05 04:00:00 13.8 0 Calma 3 Noroeste 0 -- -- 85
2020-09-05 03:00:00 15.5 0 Calma 4 Este 0 -- -- 82
2020-09-05 02:00:00 16 0 Calma 3 Noroeste 0 -- -- 79
2020-09-05 01:00:00 16.4 2 Noroeste 4 Noroeste 0 -- -- 76
2020-09-05 00:00:00 17.2 3 Norte 10 Norte 0 -- -- 73
2020-09-04 23:00:00 17.8 3 Noroeste 15 Norte 0 -- -- 75
2020-09-04 22:00:00 19.2 9 Norte 19 Norte 0 -- -- 68
2020-09-04 21:00:00 22.1 9 Norte 18 Norte 0 -- -- 41
2020-09-04 20:00:00 23.6 6 Norte 17 Noroeste 0 -- -- 39
2020-09-04 19:00:00 27.9 6 Nordeste 22 Norte 0 -- -- 26
2020-09-04 18:00:00 28.9 7 Norte 23 Norte 0 -- -- 24
2020-09-04 17:00:00 28.5 7 Norte 19 Nordeste 0 -- -- 24
2020-09-04 16:00:00 28.8 6 Norte 20 Sudoeste 0 -- -- 24
2020-09-04 15:00:00 27.9 9 Oeste 31 Sudeste 0 -- -- 18
2020-09-04 14:00:00 27.3 12 Sur 25 Sur 0 -- -- 28
2020-09-04 13:00:00 27.3 9 Sur 26 Sur 0 -- -- 28
2020-09-04 12:00:00 26.6 9 Sur 21 Sur 0 -- -- 29
2020-09-04 11:00:00 25.3 8 Sudoeste 20 Oeste 0 -- -- 31
2020-09-04 10:00:00 23.8 7 Sudoeste 27 Sudoeste 0 -- -- 28
2020-09-04 09:00:00 20.7 14 Sudoeste 26 Oeste 0 -- -- 37
2020-09-04 08:00:00 19.3 12 Oeste 25 Sudoeste 0 -- -- 41
2020-09-04 07:00:00 18.6 3 Norte 12 Noroeste 0 -- -- 45
2020-09-04 06:00:00 19.1 2 Norte 8 Oeste 0 -- -- 40
2020-09-04 05:00:00 17.9 0 Calma 6 Norte 0 -- -- 49
2020-09-04 04:00:00 18.1 2 Norte 5 Norte 0 -- -- 51
2020-09-04 03:00:00 17.9 0 Calma 5 Norte 0 -- -- 51
2020-09-04 02:00:00 17.6 2 Nordeste 5 Noroeste 0 -- -- 60
2020-09-04 01:00:00 17.6 0 Calma 4 Noroeste 0 -- -- 58
2020-09-04 00:00:00 18.4 2 Nordeste 9 Norte 0 -- -- 55
2020-09-03 23:00:00 19.5 7 Norte 13 Norte 0 -- -- 50
2020-09-03 22:00:00 19.8 7 Norte 13 Norte 0 -- -- 49
2020-09-03 21:00:00 21 9 Norte 12 Norte 0 -- -- 41
2020-09-03 20:00:00 22.6 6 Norte 10 Nordeste 0 -- -- 36
2020-09-03 19:00:00 26.6 5 Norte 10 Este 0 -- -- 29
2020-09-03 18:00:00 28.6 4 Nordeste 10 Norte 0 -- -- 27
2020-09-03 17:00:00 27.6 4 Sur 12 Sudeste 0 -- -- 29
2020-09-03 16:00:00 27.3 4 Este 13 Sur 0 -- -- 33
2020-09-03 15:00:00 26.5 4 Sur 15 Sur 0 -- -- 31
2020-09-03 14:00:00 26.4 7 Sudoeste 20 Sur 0 -- -- 32
2020-09-03 13:00:00 25 9 Sur 18 Sur 0 -- -- 37
2020-09-03 12:00:00 23.3 8 Sur 15 Sur 0 -- -- 46
2020-09-03 11:00:00 23.1 5 Sur 10 Sur 0 -- -- 46
2020-09-03 10:00:00 20.9 5 Sur 11 Sur 0 -- -- 46
2020-09-03 09:00:00 16.6 8 Sur 16 Sudoeste 0 -- -- 60
2020-09-03 08:00:00 15.7 4 Noroeste 6 Noroeste 0 -- -- 56
2020-09-03 07:00:00 16 3 Noroeste 8 Noroeste 0 -- -- 58
2020-09-03 06:00:00 16.1 2 Norte 10 Sur 0 -- -- 61
2020-09-03 05:00:00 17 3 Oeste 10 Oeste 0 -- -- 59
2020-09-03 04:00:00 16.7 3 Noroeste 7 Sudoeste 0 -- -- 61
2020-09-03 03:00:00 16.4 4 Noroeste 6 Noroeste 0 -- -- 63
2020-09-03 02:00:00 17 4 Norte 8 Norte 0 -- -- 67
2020-09-03 01:00:00 15.5 3 Norte 4 Noroeste 0 -- -- 79
2020-09-03 00:00:00 15 0 Calma 4 Noroeste 0 -- -- 82
2020-09-02 23:00:00 15.5 0 Calma 6 Noroeste 0 -- -- 80
2020-09-02 22:00:00 15.8 0 Calma 10 Norte 0 -- -- 77
2020-09-02 21:00:00 17.3 5 Norte 13 Norte 0 -- -- 75
2020-09-02 20:00:00 18.8 7 Norte 13 Norte 0 -- -- 66
2020-09-02 19:00:00 23.4 5 Norte 12 Este 0 -- -- 45
2020-09-02 18:00:00 25.2 4 Nordeste 14 Nordeste 0 -- -- 42
2020-09-02 17:00:00 24.1 5 Nordeste 11 Sudeste 0 -- -- 38
2020-09-02 16:00:00 24 5 Sur 14 Sur 0 -- -- 29
2020-09-02 15:00:00 23.2 8 Sur 14 Sur 0 -- -- 37
2020-09-02 14:00:00 22.2 8 Sur 19 Sur 0 -- -- 43
2020-09-02 13:00:00 20.8 10 Sur 24 Sur 0 -- -- 48
2020-09-02 12:00:00 19.8 9 Sur 28 Sudeste 0 -- -- 52
2020-09-02 11:00:00 17.9 7 Sur 13 Sur 0 -- -- 61
2020-09-02 10:00:00 13.5 4 Sudeste 12 Sur 0 -- -- 87
2020-09-02 09:00:00 9.4 2 Noroeste 5 Oeste 0 -- -- 93
2020-09-02 08:00:00 8.1 0 Calma 6 Noroeste 0 -- -- 92
2020-09-02 07:00:00 8.1 3 Noroeste 5 Noroeste 0 -- -- 92
2020-09-02 06:00:00 8 0 Calma 4 Norte 0 -- -- 92
2020-09-02 05:00:00 8.9 0 Calma 4 Sudeste 0 -- -- 91
2020-09-02 04:00:00 9.3 0 Calma 4 Noroeste 0 -- -- 91
2020-09-02 03:00:00 9.7 2 Norte 6 Norte 0 -- -- 91
2020-09-02 02:00:00 10.2 0 Calma 4 Noroeste 0 -- -- 90
2020-09-02 01:00:00 9.8 0 Calma 6 Norte 0 -- -- 90
2020-09-02 00:00:00 10.5 3 Sudoeste 15 Noroeste 0 -- -- 88
2020-09-01 23:00:00 11.4 7 Norte 19 Norte 0 -- -- 86
2020-09-01 22:00:00 12 9 Norte 18 Norte 0 -- -- 85
2020-09-01 21:00:00 13.1 9 Norte 22 Norte 0 -- -- 80
2020-09-01 20:00:00 14.8 9 Norte 21 Norte 0 -- -- 73
2020-09-01 19:00:00 18 7 Norte 19 Nordeste 0 -- -- 61
2020-09-01 18:00:00 21.5 7 Norte 14 Norte 0 -- -- 46
2020-09-01 17:00:00 21.8 5 Este 17 Nordeste 0 -- -- 38
2020-09-01 16:00:00 20.3 6 Norte 21 Nordeste 0 -- -- 41
2020-09-01 15:00:00 20.1 5 Norte 14 Este 0 -- -- 42
2020-09-01 14:00:00 19.5 6 Este 17 Sudeste 0 -- -- 49
2020-09-01 13:00:00 19.4 7 Nordeste 16 Este 0 -- -- 45
2020-09-01 12:00:00 19.2 6 Sur 15 Sudeste 0 -- -- 54
2020-09-01 11:00:00 18.1 4 Sur 7 Sur 0 -- -- 60
2020-09-01 10:00:00 13.7 0 Calma 5 Sudoeste 0 -- -- 67
2020-09-01 09:00:00 11.8 2 Norte 8 Este 0 -- -- 72
2020-09-01 08:00:00 12 2 Norte 4 Norte 0 -- -- 66
2020-09-01 07:00:00 13.1 0 Calma 5 Norte 0 -- -- 58
2020-09-01 06:00:00 13.2 2 Este 6 Norte 0 -- -- 60
2020-09-01 05:00:00 13.2 2 Nordeste 8 Norte 0 -- -- 61
2020-09-01 04:00:00 12.5 0 Calma 5 Norte 0 -- -- 65
2020-09-01 03:00:00 12.1 0 Calma 4 Sur 0 -- -- 66
2020-09-01 02:00:00 12.9 2 Este 9 Norte 0 -- -- 63
2020-09-01 01:00:00 13 3 Norte 12 Norte 0 -- -- 64
2020-09-01 00:00:00 13.6 4 Norte 10 Noroeste 0 -- -- 62
2020-08-31 23:00:00 13.9 6 Norte 13 Norte 0 -- -- 62
2020-08-31 22:00:00 14.6 7 Norte 12 Noroeste 0 -- -- 55
2020-08-31 21:00:00 15.5 9 Norte 13 Norte 0 -- -- 44
2020-08-31 20:00:00 17.2 4 Norte 12 Sudoeste 0 -- -- 37
2020-08-31 19:00:00 21.7 4 Oeste 13 Norte 0 -- -- 30
2020-08-31 18:00:00 19.7 3 Este 17 Noroeste 0 -- -- 36
2020-08-31 17:00:00 20.6 4 Sudeste 16 Noroeste 0 -- -- 31
2020-08-31 16:00:00 19.7 9 Nordeste 22 Norte 0 -- -- 35
2020-08-31 15:00:00 20.2 5 Sur 19 Sur 0 -- -- 31
2020-08-31 14:00:00 19 12 Sur 24 Sur 0 -- -- 44
2020-08-31 13:00:00 17 12 Sur 32 Sur 0 -- -- 44
2020-08-31 12:00:00 15.6 15 Sur 33 Sur 0 -- -- 48
2020-08-31 11:00:00 14.5 8 Sudeste 30 Oeste 0 -- -- 50
2020-08-31 10:00:00 11.6 9 Sudoeste 30 Oeste 0 -- -- 57
2020-08-31 09:00:00 9.9 5 Oeste 27 Sudoeste 0 -- -- 61
2020-08-31 08:00:00 9.1 10 Oeste 23 Oeste 0 -- -- 64
2020-08-31 07:00:00 9.2 8 Oeste 35 Sur 0 -- -- 64
2020-08-31 06:00:00 10 14 Sur 39 Sur 0 -- -- 60
2020-08-31 05:00:00 10.2 15 Sur 33 Sudoeste 0 -- -- 60
2020-08-31 04:00:00 10.1 16 Sudoeste 31 Sur 0 -- -- 63
2020-08-31 03:00:00 10 9 Sudoeste 27 Sudeste 0 -- -- 65
2020-08-31 02:00:00 9.4 6 Sudoeste 13 Sur 0 -- -- 74
2020-08-31 01:00:00 7.4 0 Calma 6 Noroeste 0 -- -- 88
2020-08-31 00:00:00 7.5 0 Calma 6 Norte 0 -- -- 86
2020-08-30 23:00:00 8.3 2 Norte 11 Norte 0 -- -- 83
2020-08-30 22:00:00 8.6 5 Norte 13 Norte 0 -- -- 83
2020-08-30 21:00:00 9.9 7 Norte 14 Norte 0 -- -- 78
2020-08-30 20:00:00 11 7 Norte 13 Norte 0 -- -- 75
2020-08-30 19:00:00 14.7 6 Norte 15 Norte 0 -- -- 61
2020-08-30 18:00:00 15.4 6 Norte 15 Nordeste 0 -- -- 58
2020-08-30 17:00:00 15.9 6 Norte 19 Nordeste 0 -- -- 57
2020-08-30 16:00:00 14.5 6 Nordeste 15 Nordeste 0 -- -- 61
2020-08-30 15:00:00 14.6 5 Este 18 Nordeste 0 -- -- 58
2020-08-30 14:00:00 14.6 5 Norte 18 Este 0 -- -- 61
2020-08-30 13:00:00 14.1 4 Norte 12 Nordeste 0 -- -- 62
2020-08-30 12:00:00 12 5 Nordeste 13 Este 0 -- -- 69
2020-08-30 11:00:00 10.6 4 Nordeste 14 Nordeste 0 -- -- 74
2020-08-30 10:00:00 11 3 Sur 8 Sur 0 -- -- 74
2020-08-30 09:00:00 7.5 3 Norte 13 Norte 0 -- -- 88
2020-08-30 08:00:00 7 6 Norte 18 Nordeste 0 -- -- 91
2020-08-30 07:00:00 7.1 6 Norte 23 Norte 0.6 -- -- 91
2020-08-30 06:00:00 7.5 4 Norte 10 Norte 0 -- -- 90
2020-08-30 05:00:00 7.2 4 Norte 11 Norte 0 -- -- 90
2020-08-30 04:00:00 7.3 2 Norte 18 Norte 0 -- -- 90
2020-08-30 03:00:00 7.3 8 Norte 15 Norte 0.2 -- -- 90
2020-08-30 02:00:00 7.8 6 Norte 15 Norte 0 -- -- 90
2020-08-30 01:00:00 7.1 8 Norte 14 Norte 0.2 -- -- 89
2020-08-30 00:00:00 7.4 6 Norte 22 Norte 0.6 -- -- 88
2020-08-29 23:00:00 8.3 7 Norte 15 Noroeste 0.4 -- -- 88
2020-08-29 22:00:00 8.4 6 Norte 16 Norte 0.2 -- -- 88
2020-08-29 21:00:00 8.7 9 Norte 18 Noroeste 0 -- -- 84
2020-08-29 20:00:00 9.9 8 Norte 18 Norte 0 -- -- 77
2020-08-29 19:00:00 12.8 5 Norte 17 Norte 0 -- -- 68
2020-08-29 18:00:00 10.4 7 Norte 21 Norte 0 -- -- 80
2020-08-29 17:00:00 12.5 8 Norte 25 Norte 0.8 -- -- 78
2020-08-29 16:00:00 12.2 6 Este 19 Noroeste 0.6 -- -- 78
2020-08-29 15:00:00 11 8 Norte 23 Este 1.4 -- -- 81
2020-08-29 14:00:00 10.8 7 Norte 19 Nordeste 1.6 -- -- 88
2020-08-29 13:00:00 10 4 Norte 13 Este 2 -- -- 90
2020-08-29 12:00:00 9.9 5 Norte 15 Este 0.6 -- -- 90
2020-08-29 11:00:00 8.9 5 Norte 19 Nordeste 0.6 -- -- 90
2020-08-29 10:00:00 8.5 4 Norte 14 Noroeste 0.2 -- -- 90
2020-08-29 09:00:00 8.3 3 Noroeste 13 Noroeste 1 -- -- 90
2020-08-29 08:00:00 8 4 Norte 20 Norte 0 -- -- 89
2020-08-29 07:00:00 8.3 6 Norte 18 Norte 0 -- -- 89
2020-08-29 06:00:00 8.6 4 Norte 15 Norte 0 -- -- 89
2020-08-29 05:00:00 8.6 5 Norte 19 Norte 0.2 -- -- 89
2020-08-29 04:00:00 8.7 3 Norte 15 Norte 0 -- -- 88
2020-08-29 03:00:00 8.7 6 Norte 17 Norte 0.2 -- -- 88
2020-08-29 02:00:00 8.9 0 Calma 15 Norte 1.8 -- -- 89
2020-08-29 01:00:00 8.8 0 Calma 15 Norte 0.2 -- -- 86
2020-08-29 00:00:00 9 7 Norte 14 Norte 0 -- -- 83
2020-08-28 23:00:00 9.5 6 Norte 17 Noroeste 0 -- -- 83
2020-08-28 22:00:00 10.1 4 Norte 15 Noroeste 0 -- -- 76
2020-08-28 21:00:00 11.1 4 Norte 15 Norte 0 -- -- 70
2020-08-28 20:00:00 12.4 4 Sur 17 Este 0 -- -- 65
2020-08-28 19:00:00 13.5 4 Este 18 Este 0 -- -- 66
2020-08-28 18:00:00 14.6 6 Nordeste 22 Nordeste 0 -- -- 66
2020-08-28 17:00:00 16.3 9 Norte 25 Norte 0 -- -- 54
2020-08-28 16:00:00 15.5 6 Sudeste 23 Nordeste 0 -- -- 53
2020-08-28 15:00:00 14.7 6 Norte 23 Norte 0 -- -- 60
2020-08-28 14:00:00 14.4 9 Norte 27 Norte 0 -- -- 64
2020-08-28 13:00:00 12.7 8 Noroeste 24 Noroeste 0 -- -- 71
2020-08-28 12:00:00 13.2 5 Noroeste 17 Noroeste 0 -- -- 66
2020-08-28 11:00:00 13.3 5 Este 17 Norte 0 -- -- 75
2020-08-28 10:00:00 11.3 3 Sudeste 10 Este 0 -- -- 80
2020-08-28 09:00:00 10.2 5 Norte 11 Norte 0 -- -- 80
2020-08-28 08:00:00 9.9 5 Nordeste 13 Nordeste 0 -- -- 88
2020-08-28 07:00:00 11.1 3 Nordeste 13 Norte 0 -- -- 87
2020-08-28 06:00:00 11.9 5 Norte 15 Norte 0 -- -- 87
2020-08-28 05:00:00 13.1 5 Norte 12 Nordeste 0 -- -- 88
2020-08-28 04:00:00 13.9 5 Nordeste 13 Nordeste 0 -- -- 88
2020-08-28 03:00:00 14.5 4 Nordeste 17 Noroeste 0.2 -- -- 89
2020-08-28 02:00:00 14.9 2 Sudeste 8 Norte 0.4 -- -- 90
2020-08-28 01:00:00 14.8 0 Calma 6 Sur 0.4 -- -- 89
2020-08-28 00:00:00 15 4 Norte 18 Norte 0.2 -- -- 87
2020-08-27 23:00:00 16.2 10 Noroeste 27 Noroeste 0 -- -- 78
2020-08-27 22:00:00 16.8 11 Norte 26 Norte 0 -- -- 77
2020-08-27 21:00:00 17.9 6 Norte 14 Norte 0 -- -- 73
2020-08-27 20:00:00 19.9 4 Nordeste 16 Norte 0 -- -- 65
2020-08-27 19:00:00 20.9 6 Nordeste 18 Norte 0 -- -- 63
2020-08-27 18:00:00 22.6 7 Nordeste 22 Norte 0 -- -- 60
2020-08-27 17:00:00 22.8 6 Nordeste 21 Nordeste 0 -- -- 61
2020-08-27 16:00:00 23.5 8 Nordeste 23 Noroeste 0 -- -- 61
2020-08-27 15:00:00 23.9 6 Nordeste 17 Noroeste 0 -- -- 54
2020-08-27 14:00:00 22.1 8 Norte 19 Este 0 -- -- 63
2020-08-27 13:00:00 22.4 6 Nordeste 17 Norte 0 -- -- 64
2020-08-27 12:00:00 22.2 5 Nordeste 10 Noroeste 0 -- -- 61
2020-08-27 11:00:00 22.9 3 Sur 12 Sudoeste 0 -- -- 61
2020-08-27 10:00:00 19.2 2 Oeste 8 Sur 0 -- -- 81
2020-08-27 09:00:00 16.4 2 Sur 4 Sur 0 -- -- 90
2020-08-27 08:00:00 16.3 3 Norte 10 Norte 0 -- -- 90
2020-08-27 07:00:00 15.7 4 Norte 8 Norte 0 -- -- 91
2020-08-27 06:00:00 15.9 4 Norte 6 Norte 0 -- -- 91
2020-08-27 05:00:00 15.9 0 Calma 6 Norte 0 -- -- 91
2020-08-27 04:00:00 17.2 0 Calma 4 Nordeste 0 -- -- 90
2020-08-27 03:00:00 17.3 0 Calma 5 Noroeste 0 -- -- 89
2020-08-27 02:00:00 18.2 3 Nordeste 9 Nordeste 0 -- -- 88
2020-08-27 01:00:00 18 4 Norte 9 Norte 0 -- -- 86
2020-08-27 00:00:00 18.6 5 Norte 18 Noroeste 0 -- -- 82
2020-08-26 23:00:00 19.8 9 Norte 16 Noroeste 0 -- -- 77
2020-08-26 22:00:00 20.3 7 Norte 14 Norte 0 -- -- 68
2020-08-26 21:00:00 21.2 6 Norte 13 Norte 0 -- -- 63
2020-08-26 20:00:00 21.9 5 Norte 12 Nordeste 0 -- -- 60
2020-08-26 19:00:00 25.8 3 Nordeste 12 Este 0 -- -- 49
2020-08-26 18:00:00 26.6 5 Nordeste 17 Nordeste 0 -- -- 48
2020-08-26 17:00:00 26.9 5 Sudeste 18 Este 0 -- -- 48
2020-08-26 16:00:00 26.2 5 Este 14 Nordeste 0 -- -- 51
2020-08-26 15:00:00 25 6 Sudeste 12 Sudeste 0 -- -- 53
2020-08-26 14:00:00 24.9 4 Este 13 Sur 0 -- -- 54
2020-08-26 13:00:00 23.7 5 Nordeste 14 Este 0 -- -- 55
2020-08-26 12:00:00 21.6 4 Norte 10 Nordeste 0 -- -- 63
2020-08-26 11:00:00 23 4 Sur 9 Sur 0 -- -- 59
2020-08-26 10:00:00 20.4 4 Sur 6 Sur 0 -- -- 67
2020-08-26 09:00:00 16.8 0 Calma 4 Noroeste 0 -- -- 72
2020-08-26 08:00:00 14.5 0 Calma 8 Norte 0 -- -- 88
2020-08-26 07:00:00 12.9 2 Norte 4 Norte 0 -- -- 91
2020-08-26 06:00:00 14.1 0 Calma 6 Noroeste 0 -- -- 91
2020-08-26 05:00:00 14.4 3 Norte 6 Norte 0 -- -- 91
2020-08-26 04:00:00 14.2 3 Norte 6 Nordeste 0 -- -- 90
2020-08-26 03:00:00 15.1 0 Calma 10 Norte 0 -- -- 90
2020-08-26 02:00:00 15.3 3 Noroeste 4 Noroeste 0 -- -- 90
2020-08-26 01:00:00 15.6 2 Norte 11 Norte 0 -- -- 88
2020-08-26 00:00:00 16.4 7 Norte 12 Norte 0 -- -- 85